TAFOR
Diposting tanggal: 10 Juni 2019

Pukul :

Isi :

TAF WAGI 190500Z 1906/1918 18006KT 7000 BKN010 BECMG 1909/1911 00000KT=